createdAt,value
2018-10-03T00:00:29.107Z,17.57
2018-10-03T00:02:57.212Z,17.77
2018-10-03T00:05:25.292Z,18.48
2018-10-03T00:07:53.404Z,16.03
2018-10-03T00:10:21.549Z,16.30
2018-10-03T00:12:49.712Z,21.20
2018-10-03T00:15:18.476Z,12.87
2018-10-03T00:17:46.719Z,21.10
2018-10-03T00:20:15.061Z,16.67
2018-10-03T00:22:43.236Z,19.77
2018-10-03T00:25:11.404Z,20.30
2018-10-03T00:27:39.516Z,19.15
2018-10-03T00:30:07.831Z,24.37
2018-10-03T00:32:36.119Z,14.30
2018-10-03T00:35:04.439Z,16.37
2018-10-03T00:37:32.528Z,18.03
2018-10-03T00:40:00.960Z,16.40
2018-10-03T00:42:29.235Z,15.30
2018-10-03T00:44:57.392Z,15.45
2018-10-03T00:47:25.479Z,17.43
2018-10-03T00:49:53.752Z,14.67
2018-10-03T00:52:22.312Z,15.47
2018-10-03T00:54:50.428Z,15.15
2018-10-03T00:57:18.639Z,14.57
2018-10-03T00:59:46.727Z,16.47
2018-10-03T01:02:14.855Z,16.95
2018-10-03T01:04:42.929Z,13.68
2018-10-03T01:07:11.114Z,14.47
2018-10-03T01:09:39.272Z,15.60
2018-10-03T01:12:07.364Z,13.47
2018-10-03T01:14:35.673Z,18.30
2018-10-03T01:17:03.757Z,18.23
2018-10-03T01:19:31.839Z,14.17
2018-10-03T01:21:59.991Z,16.90
2018-10-03T01:24:28.079Z,16.47
2018-10-03T01:26:56.386Z,18.45
2018-10-03T01:29:24.973Z,17.73
2018-10-03T01:31:53.160Z,13.90
2018-10-03T01:34:21.251Z,15.80
2018-10-03T01:36:49.407Z,16.23
2018-10-03T01:39:17.525Z,15.20
2018-10-03T01:41:45.694Z,16.13
2018-10-03T01:44:14.015Z,17.37
2018-10-03T01:46:42.264Z,11.57
2018-10-03T01:49:10.372Z,15.80
2018-10-03T01:51:38.655Z,12.80
2018-10-03T01:54:06.744Z,18.43
2018-10-03T01:56:34.883Z,12.53
2018-10-03T01:59:02.963Z,16.80
2018-10-03T02:01:31.191Z,15.40
2018-10-03T02:03:59.294Z,17.60
2018-10-03T02:06:27.385Z,12.37
2018-10-03T02:08:55.724Z,13.57
2018-10-03T02:11:24.154Z,17.93
2018-10-03T02:13:52.332Z,14.73
2018-10-03T02:16:20.740Z,14.30
2018-10-03T02:18:48.860Z,15.53
2018-10-03T02:21:17.191Z,14.30
2018-10-03T02:23:45.260Z,17.33
2018-10-03T02:26:13.482Z,14.10
2018-10-03T02:28:41.676Z,17.80
2018-10-03T02:31:09.919Z,17.13
2018-10-03T02:33:38.111Z,14.30
2018-10-03T02:36:05.837Z,17.53
2018-10-03T02:38:33.932Z,18.20
2018-10-03T02:41:01.999Z,16.57
2018-10-03T02:43:30.095Z,12.77
2018-10-03T02:45:58.177Z,14.28
2018-10-03T02:48:26.288Z,13.30
2018-10-03T02:50:54.416Z,14.90
2018-10-03T02:53:22.497Z,14.63
2018-10-03T02:55:50.655Z,16.47
2018-10-03T02:58:18.939Z,15.17
2018-10-03T03:00:47.107Z,17.73
2018-10-03T03:03:15.196Z,14.20
2018-10-03T03:05:43.527Z,17.87
2018-10-03T03:08:11.840Z,14.97
2018-10-03T03:10:39.948Z,13.53
2018-10-03T03:13:08.011Z,15.77
2018-10-03T03:15:36.632Z,12.63
2018-10-03T03:18:04.765Z,14.87
2018-10-03T03:20:32.867Z,13.03
2018-10-03T03:23:00.969Z,15.03
2018-10-03T03:25:29.064Z,14.57
2018-10-03T03:27:57.248Z,13.43
2018-10-03T03:30:25.564Z,14.90
2018-10-03T03:32:53.671Z,16.10
2018-10-03T03:35:21.849Z,16.65
2018-10-03T03:37:50.575Z,13.77
2018-10-03T03:40:18.722Z,15.67
2018-10-03T03:42:46.911Z,13.68
2018-10-03T03:45:15.076Z,14.25
2018-10-03T03:47:43.664Z,14.13
2018-10-03T03:50:11.844Z,14.17
2018-10-03T03:52:39.935Z,16.23
2018-10-03T03:55:08.695Z,13.27
2018-10-03T03:57:36.951Z,16.97
2018-10-03T04:00:05.085Z,13.53
2018-10-03T04:02:33.231Z,14.35
2018-10-03T04:05:01.481Z,16.37
2018-10-03T04:07:29.842Z,17.30
2018-10-03T04:09:58.531Z,17.55
2018-10-03T04:12:26.824Z,19.25
2018-10-03T04:14:55.377Z,12.98
2018-10-03T04:17:23.667Z,13.97
2018-10-03T04:19:51.949Z,15.83
2018-10-03T04:22:20.019Z,13.33
2018-10-03T04:24:48.132Z,12.90
2018-10-03T04:27:16.960Z,14.83
2018-10-03T04:29:45.105Z,14.07
2018-10-03T04:32:13.267Z,16.60
2018-10-03T04:34:41.356Z,14.18
2018-10-03T04:37:09.459Z,15.70
2018-10-03T04:39:37.527Z,16.73
2018-10-03T04:42:05.776Z,17.93
2018-10-03T04:44:34.140Z,13.37
2018-10-03T04:47:02.814Z,13.18
2018-10-03T04:49:30.975Z,11.75
2018-10-03T04:51:59.198Z,18.07
2018-10-03T04:54:27.284Z,14.43
2018-10-03T04:56:55.884Z,13.47
2018-10-03T04:59:24.971Z,12.57
2018-10-03T05:01:53.124Z,12.23
2018-10-03T05:04:21.323Z,14.97
2018-10-03T05:06:49.501Z,13.97
2018-10-03T05:09:17.903Z,16.70
2018-10-03T05:11:46.097Z,19.27
2018-10-03T05:14:14.167Z,18.90
2018-10-03T05:16:42.780Z,17.47
2018-10-03T05:19:10.932Z,16.67
2018-10-03T05:21:39.396Z,15.37
2018-10-03T05:24:08.376Z,14.57
2018-10-03T05:26:36.633Z,16.53
2018-10-03T05:29:04.870Z,12.17
2018-10-03T05:31:32.999Z,14.30
2018-10-03T05:34:01.133Z,18.00
2018-10-03T05:36:29.663Z,17.92
2018-10-03T05:38:57.751Z,11.07
2018-10-03T05:41:26.003Z,16.27
2018-10-03T05:43:54.087Z,18.07
2018-10-03T05:46:22.859Z,16.77
2018-10-03T05:48:51.026Z,15.40
2018-10-03T05:51:19.072Z,13.53
2018-10-03T05:53:47.212Z,12.63
2018-10-03T05:56:15.563Z,14.07
2018-10-03T05:58:43.659Z,17.43
2018-10-03T06:01:12.060Z,19.23
2018-10-03T06:03:40.184Z,17.77
2018-10-03T06:06:08.595Z,12.93
2018-10-03T06:08:36.850Z,16.43
2018-10-03T06:11:05.127Z,16.85
2018-10-03T06:13:33.504Z,18.80
2018-10-03T06:16:01.836Z,12.03
2018-10-03T06:18:30.914Z,11.77
2018-10-03T06:20:59.089Z,16.20
2018-10-03T06:23:27.237Z,15.43
2018-10-03T06:25:55.665Z,20.97
2018-10-03T06:28:24.562Z,14.87
2018-10-03T06:30:52.725Z,16.30
2018-10-03T06:33:20.867Z,15.63
2018-10-03T06:35:48.980Z,18.65
2018-10-03T06:38:17.767Z,12.10
2018-10-03T06:40:45.868Z,18.27
2018-10-03T06:43:14.103Z,16.27
2018-10-03T06:45:42.258Z,20.02
2018-10-03T06:48:10.407Z,17.30
2018-10-03T06:50:38.664Z,13.50
2018-10-03T06:53:07.348Z,16.45
2018-10-03T06:55:35.438Z,15.08
2018-10-03T06:58:03.595Z,13.10
2018-10-03T07:00:31.915Z,13.72
2018-10-03T07:03:00.201Z,15.15
2018-10-03T07:05:28.471Z,11.38
2018-10-03T07:07:56.812Z,12.68
2018-10-03T07:10:24.935Z,11.95
2018-10-03T07:12:53.332Z,14.07
2018-10-03T07:15:21.395Z,11.75
2018-10-03T07:17:49.508Z,12.95
2018-10-03T07:20:17.967Z,10.28
2018-10-03T07:22:46.019Z,10.30
2018-10-03T07:25:14.188Z,10.53
2018-10-03T07:27:42.281Z,10.35
2018-10-03T07:30:10.651Z,10.13
2018-10-03T07:32:38.755Z,10.88
2018-10-03T07:35:07.636Z,9.10
2018-10-03T07:37:35.994Z,11.00
2018-10-03T07:40:04.307Z,13.68
2018-10-03T07:42:32.415Z,11.25
2018-10-03T07:45:01.406Z,7.37
2018-10-03T07:47:29.571Z,13.38
2018-10-03T07:49:57.720Z,8.80
2018-10-03T07:52:26.779Z,9.95
2018-10-03T07:54:54.881Z,10.93
2018-10-03T07:57:23.600Z,7.83
2018-10-03T07:59:52.141Z,11.20
2018-10-03T08:02:20.524Z,8.40
2018-10-03T08:04:48.665Z,10.85
2018-10-03T08:07:16.796Z,8.70
2018-10-03T08:09:44.881Z,13.10
2018-10-03T08:12:13.013Z,11.12
2018-10-03T08:14:41.107Z,10.13
2018-10-03T08:17:09.408Z,10.85
2018-10-03T08:19:37.780Z,9.30
2018-10-03T08:22:06.060Z,12.10
2018-10-03T08:24:34.317Z,9.80
2018-10-03T08:27:02.776Z,11.03
2018-10-03T08:29:30.852Z,11.10
2018-10-03T08:31:59.192Z,16.87
2018-10-03T08:34:27.357Z,15.98
2018-10-03T08:36:55.464Z,13.70
2018-10-03T08:39:23.778Z,13.62
2018-10-03T08:41:52.369Z,16.32
2018-10-03T08:44:20.479Z,14.25
2018-10-03T08:46:48.653Z,13.40
2018-10-03T08:49:16.860Z,10.00
2018-10-03T08:51:45.118Z,8.73
2018-10-03T08:54:13.284Z,8.75
2018-10-03T08:56:41.450Z,9.30
2018-10-03T08:59:09.676Z,8.10
2018-10-03T09:01:37.829Z,8.63
2018-10-03T09:04:06.003Z,10.43
2018-10-03T09:06:34.738Z,15.15
2018-10-03T09:09:03.222Z,11.38
2018-10-03T09:11:31.299Z,8.68
2018-10-03T09:13:59.494Z,8.68
2018-10-03T09:16:27.579Z,8.93
2018-10-03T09:18:56.761Z,9.00
2018-10-03T09:21:25.179Z,11.78
2018-10-03T09:23:53.305Z,10.13
2018-10-03T09:26:21.409Z,10.70
2018-10-03T09:28:49.625Z,9.35
2018-10-03T09:31:17.941Z,12.75
2018-10-03T09:33:46.020Z,8.48
2018-10-03T09:36:14.185Z,11.08
2018-10-03T09:38:42.901Z,8.95
2018-10-03T09:41:10.964Z,8.95
2018-10-03T09:43:39.213Z,11.43
2018-10-03T09:46:07.375Z,8.88
2018-10-03T09:48:35.639Z,10.13
2018-10-03T09:51:03.752Z,12.10
2018-10-03T09:53:31.831Z,12.40
2018-10-03T09:56:00.957Z,12.63
2018-10-03T09:58:29.108Z,13.68
2018-10-03T10:01:02.545Z,9.15
2018-10-03T10:03:30.833Z,9.00
2018-10-03T10:05:58.951Z,12.53
2018-10-03T10:08:33.851Z,10.08
2018-10-03T10:11:02.342Z,12.23
2018-10-03T10:13:30.463Z,8.10
2018-10-03T10:15:58.827Z,12.78
2018-10-03T10:18:27.152Z,11.53
2018-10-03T10:20:55.551Z,12.03
2018-10-03T10:23:23.665Z,8.70
2018-10-03T10:25:51.768Z,12.88
2018-10-03T10:28:20.060Z,12.28
2018-10-03T10:30:48.589Z,8.43
2018-10-03T10:33:16.946Z,11.33
2018-10-03T10:35:45.195Z,9.18
2018-10-03T10:38:13.296Z,9.98
2018-10-03T10:40:41.845Z,11.00
2018-10-03T10:43:09.684Z,7.90
2018-10-03T10:45:37.972Z,8.73
2018-10-03T10:48:06.115Z,7.97
2018-10-03T10:50:34.257Z,5.65
2018-10-03T10:53:03.092Z,8.20
2018-10-03T10:55:31.196Z,5.30
2018-10-03T10:57:59.277Z,6.97
2018-10-03T11:00:27.397Z,5.12
2018-10-03T11:02:55.731Z,6.22
2018-10-03T11:05:24.097Z,5.05
2018-10-03T11:07:52.488Z,6.35
2018-10-03T11:10:20.592Z,5.50
2018-10-03T11:12:48.789Z,7.92
2018-10-03T11:15:17.127Z,5.92
2018-10-03T11:17:45.222Z,5.10
2018-10-03T11:20:13.918Z,6.03
2018-10-03T11:22:41.996Z,7.12
2018-10-03T11:25:11.160Z,6.15
2018-10-03T11:27:39.247Z,9.40
2018-10-03T11:30:07.352Z,7.10
2018-10-03T11:32:35.656Z,9.63
2018-10-03T11:35:03.871Z,7.80
2018-10-03T11:37:32.515Z,5.90
2018-10-03T11:40:00.619Z,6.05
2018-10-03T11:42:28.776Z,8.85
2018-10-03T11:44:56.948Z,9.40
2018-10-03T11:47:25.200Z,11.48
2018-10-03T11:49:53.304Z,9.78
2018-10-03T11:52:21.588Z,6.75
2018-10-03T11:54:49.941Z,9.20
2018-10-03T11:57:18.140Z,8.10
2018-10-03T11:59:46.240Z,11.68
2018-10-03T12:02:14.858Z,8.65
2018-10-03T12:04:42.971Z,9.38
2018-10-03T12:07:11.260Z,10.03
2018-10-03T12:09:39.355Z,10.43
2018-10-03T12:12:07.493Z,9.88
2018-10-03T12:14:35.630Z,9.20
2018-10-03T12:17:03.990Z,8.28
2018-10-03T12:19:32.562Z,10.75
2018-10-03T12:22:00.771Z,8.85
2018-10-03T12:24:28.951Z,8.08
2018-10-03T12:26:57.149Z,8.90
2018-10-03T12:29:25.412Z,8.28
2018-10-03T12:31:53.539Z,7.08
2018-10-03T12:34:21.876Z,11.65
2018-10-03T12:36:50.151Z,6.97
2018-10-03T12:39:18.243Z,7.85
2018-10-03T12:41:46.458Z,5.97
2018-10-03T12:44:14.613Z,7.17
2018-10-03T12:46:42.724Z,6.10
2018-10-03T12:49:10.943Z,8.13
2018-10-03T12:51:39.047Z,9.25
2018-10-03T12:54:07.476Z,6.30
2018-10-03T12:56:35.596Z,10.05
2018-10-03T12:59:03.693Z,7.35
2018-10-03T13:01:31.936Z,8.38
2018-10-03T13:04:00.127Z,7.97
2018-10-03T13:06:28.216Z,9.65
2018-10-03T13:08:56.454Z,8.20
2018-10-03T13:11:24.579Z,9.98
2018-10-03T13:13:52.967Z,8.30
2018-10-03T13:16:21.209Z,9.90
2018-10-03T13:18:49.383Z,11.03
2018-10-03T13:21:17.500Z,8.68
2018-10-03T13:23:45.879Z,10.65
2018-10-03T13:26:13.960Z,9.35
2018-10-03T13:28:42.187Z,7.37
2018-10-03T13:31:10.308Z,8.88
2018-10-03T13:33:38.503Z,8.23
2018-10-03T13:36:06.951Z,10.15
2018-10-03T13:38:35.221Z,8.08
2018-10-03T13:41:03.556Z,5.65
2018-10-03T13:43:31.888Z,9.05
2018-10-03T13:46:00.082Z,7.50
2018-10-03T13:48:28.592Z,11.15
2018-10-03T13:50:56.778Z,9.88
2018-10-03T13:53:24.904Z,8.00
2018-10-03T13:55:53.174Z,10.15
2018-10-03T13:58:21.280Z,10.90
2018-10-03T14:00:49.706Z,8.03
2018-10-03T14:03:17.831Z,7.35
2018-10-03T14:05:46.009Z,8.18
2018-10-03T14:08:14.088Z,9.53
2018-10-03T14:10:42.229Z,7.08
2018-10-03T14:13:10.539Z,5.75
2018-10-03T14:15:38.876Z,5.85
2018-10-03T14:18:07.167Z,6.45
2018-10-03T14:20:35.558Z,5.00
2018-10-03T14:23:03.633Z,7.12
2018-10-03T14:25:31.748Z,5.72
2018-10-03T14:27:59.823Z,3.72
2018-10-03T14:30:28.129Z,3.60
2018-10-03T14:32:56.319Z,5.65
2018-10-03T14:35:24.430Z,5.03
2018-10-03T14:37:52.640Z,3.10
2018-10-03T14:40:20.790Z,4.45
2018-10-03T14:42:49.065Z,4.72
2018-10-03T14:45:18.784Z,5.28
2018-10-03T14:47:46.876Z,5.67
2018-10-03T14:50:16.901Z,4.53
2018-10-03T14:52:45.105Z,3.83
2018-10-03T14:55:13.219Z,4.15
2018-10-03T14:57:41.292Z,4.37
2018-10-03T15:00:09.712Z,5.17
2018-10-03T15:02:38.849Z,5.42
2018-10-03T15:05:07.286Z,4.40
2018-10-03T15:07:35.640Z,4.08
2018-10-03T15:10:03.736Z,5.60
2018-10-03T15:12:31.841Z,6.25
2018-10-03T15:15:00.013Z,3.87
2018-10-03T15:17:28.104Z,8.40
2018-10-03T15:19:56.399Z,6.87
2018-10-03T15:22:24.471Z,5.15
2018-10-03T15:24:52.670Z,4.87
2018-10-03T15:27:21.446Z,5.87
2018-10-03T15:29:49.609Z,7.15
2018-10-03T15:32:17.644Z,8.65
2018-10-03T15:34:45.811Z,6.92
2018-10-03T15:37:14.009Z,4.55
2018-10-03T15:39:42.221Z,6.92
2018-10-03T15:42:10.313Z,7.67
2018-10-03T15:44:38.577Z,6.00
2018-10-03T15:47:06.852Z,5.08
2018-10-03T15:49:34.940Z,3.62
2018-10-03T15:52:03.790Z,8.15
2018-10-03T15:54:31.927Z,3.80
2018-10-03T15:57:00.084Z,5.40
2018-10-03T15:59:28.804Z,5.42
2018-10-03T16:01:56.994Z,7.22
2018-10-03T16:04:25.123Z,5.25
2018-10-03T16:06:53.219Z,3.37
2018-10-03T16:09:21.309Z,4.53
2018-10-03T16:11:49.532Z,6.90
2018-10-03T16:14:17.741Z,8.30
2018-10-03T16:18:39.048Z,4.72
2018-10-03T16:21:07.749Z,7.15
2018-10-03T16:23:36.667Z,8.15
2018-10-03T16:26:05.026Z,6.85
2018-10-03T16:28:33.216Z,9.85
2018-10-03T16:31:02.199Z,7.37
2018-10-03T16:33:30.386Z,6.28
2018-10-03T16:35:58.629Z,6.33
2018-10-03T16:38:27.096Z,8.23
2018-10-03T16:40:55.367Z,6.90
2018-10-03T16:43:23.631Z,8.20
2018-10-03T16:45:51.923Z,6.47
2018-10-03T16:48:20.093Z,10.10
2018-10-03T16:50:48.167Z,5.03
2018-10-03T16:53:19.141Z,6.10
2018-10-03T16:55:47.440Z,4.55
2018-10-03T16:58:15.724Z,8.75
2018-10-03T17:00:43.992Z,6.80
2018-10-03T17:03:12.968Z,6.33
2018-10-03T17:05:41.145Z,8.23
2018-10-03T17:08:09.336Z,9.05
2018-10-03T17:10:37.447Z,8.93
2018-10-03T17:13:05.537Z,7.12
2018-10-03T17:15:33.736Z,11.85
2018-10-03T17:18:01.963Z,10.00
2018-10-03T17:20:30.076Z,10.88
2018-10-03T17:22:58.646Z,10.28
2018-10-03T17:25:26.932Z,6.62
2018-10-03T17:27:55.196Z,6.85
2018-10-03T17:30:23.317Z,6.17
2018-10-03T17:32:51.427Z,7.87
2018-10-03T17:35:20.098Z,8.83
2018-10-03T17:37:48.214Z,9.03
2018-10-03T17:40:16.330Z,6.53
2018-10-03T17:42:44.508Z,8.40
2018-10-03T17:45:12.600Z,6.50
2018-10-03T17:47:40.777Z,7.15
2018-10-03T17:50:08.872Z,8.70
2018-10-03T17:52:37.095Z,6.95
2018-10-03T17:55:05.171Z,9.50
2018-10-03T17:57:33.372Z,7.37
2018-10-03T18:00:01.503Z,6.95
2018-10-03T18:02:30.558Z,7.70
2018-10-03T18:04:58.885Z,6.42
2018-10-03T18:07:27.178Z,8.53
2018-10-03T18:09:55.293Z,8.10
2018-10-03T18:12:23.445Z,6.10
2018-10-03T18:14:51.831Z,10.72
2018-10-03T18:17:19.916Z,7.75
2018-10-03T18:19:48.118Z,8.03
2018-10-03T18:22:16.225Z,6.12
2018-10-03T18:24:44.353Z,9.45
2018-10-03T18:27:12.648Z,8.45
2018-10-03T18:29:40.740Z,8.20
2018-10-03T18:32:08.898Z,9.43
2018-10-03T18:34:37.000Z,6.75
2018-10-03T18:37:05.928Z,10.30
2018-10-03T18:39:34.091Z,6.80
2018-10-03T18:42:02.307Z,7.60
2018-10-03T18:44:30.472Z,8.55
2018-10-03T18:46:59.377Z,7.83
2018-10-03T18:49:27.488Z,6.65
2018-10-03T18:51:55.820Z,9.88
2018-10-03T18:54:23.996Z,9.60
2018-10-03T18:56:52.182Z,10.60
2018-10-03T18:59:21.237Z,9.35
2018-10-03T19:01:49.348Z,9.33
2018-10-03T19:04:17.604Z,9.55
2018-10-03T19:06:45.862Z,8.33
2018-10-03T19:09:14.144Z,11.22
2018-10-03T19:11:42.316Z,9.33
2018-10-03T19:14:10.765Z,10.00
2018-10-03T19:16:38.945Z,5.50
2018-10-03T19:19:07.336Z,6.70
2018-10-03T19:21:35.429Z,7.55
2018-10-03T19:24:04.134Z,7.10
2018-10-03T19:26:32.611Z,10.03
2018-10-03T19:29:00.828Z,7.28
2018-10-03T19:31:28.948Z,8.58
2018-10-03T19:33:57.735Z,9.23
2018-10-03T19:36:25.871Z,8.05
2018-10-03T19:38:53.977Z,9.03
2018-10-03T19:41:22.080Z,8.68
2018-10-03T19:43:50.819Z,7.75
2018-10-03T19:46:18.933Z,10.35
2018-10-03T19:48:47.016Z,8.35
2018-10-03T19:51:15.351Z,9.60
2018-10-03T19:53:43.525Z,8.33
2018-10-03T19:56:11.734Z,5.60
2018-10-03T19:58:39.997Z,8.00
2018-10-03T20:01:08.084Z,14.00
2018-10-03T20:03:36.257Z,12.33
2018-10-03T20:06:04.511Z,9.93
2018-10-03T20:08:32.645Z,9.17
2018-10-03T20:11:00.860Z,8.33
2018-10-03T20:13:29.200Z,11.43
2018-10-03T20:15:57.327Z,9.63
2018-10-03T20:18:25.987Z,6.97
2018-10-03T20:20:54.267Z,6.72
2018-10-03T20:23:22.665Z,7.58
2018-10-03T20:25:51.113Z,10.35
2018-10-03T20:28:19.351Z,9.23
2018-10-03T20:30:47.504Z,6.30
2018-10-03T20:33:16.200Z,9.30
2018-10-03T20:35:45.116Z,8.53
2018-10-03T20:38:13.216Z,8.73
2018-10-03T20:40:41.375Z,8.18
2018-10-03T20:43:09.470Z,11.93
2018-10-03T20:45:37.620Z,7.55
2018-10-03T20:48:06.142Z,7.40
2018-10-03T20:50:34.409Z,7.83
2018-10-03T20:53:02.544Z,9.23
2018-10-03T20:55:30.879Z,11.50
2018-10-03T20:58:02.956Z,7.85
2018-10-03T21:00:31.164Z,9.50
2018-10-03T21:02:59.329Z,12.43
2018-10-03T21:05:27.496Z,8.43
2018-10-03T21:07:55.696Z,12.03
2018-10-03T21:10:23.976Z,11.80
2018-10-03T21:12:52.120Z,9.73
2018-10-03T21:15:20.904Z,11.97
2018-10-03T21:17:49.066Z,11.47
2018-10-03T21:20:17.149Z,13.78
2018-10-03T21:22:45.257Z,8.53
2018-10-03T21:25:13.519Z,9.83
2018-10-03T21:27:41.664Z,11.90
2018-10-03T21:30:10.114Z,7.23
2018-10-03T21:32:38.442Z,9.33
2018-10-03T21:35:06.678Z,11.55
2018-10-03T21:37:34.928Z,9.90
2018-10-03T21:40:03.225Z,11.93
2018-10-03T21:42:31.321Z,9.60
2018-10-03T21:44:59.515Z,8.53
2018-10-03T21:47:27.688Z,6.30
2018-10-03T21:49:55.953Z,8.27
2018-10-03T21:52:24.017Z,7.53
2018-10-03T21:54:52.967Z,10.50
2018-10-03T21:57:21.267Z,9.50
2018-10-03T21:59:49.352Z,8.50
2018-10-03T22:02:17.455Z,7.73
2018-10-03T22:04:45.604Z,8.85
2018-10-03T22:07:13.776Z,7.00
2018-10-03T22:09:42.073Z,9.93
2018-10-03T22:12:10.255Z,9.50
2018-10-03T22:14:38.397Z,9.27
2018-10-03T22:17:10.834Z,9.67
2018-10-03T22:19:39.060Z,8.37
2018-10-03T22:22:07.201Z,11.67
2018-10-03T22:24:35.410Z,9.30
2018-10-03T22:27:03.750Z,5.73
2018-10-03T22:29:32.045Z,9.53
2018-10-03T22:32:00.191Z,6.90
2018-10-03T22:34:28.258Z,7.67
2018-10-03T22:36:56.449Z,7.67
2018-10-03T22:39:24.551Z,6.57
2018-10-03T22:41:52.692Z,8.37
2018-10-03T22:44:21.623Z,7.53
2018-10-03T22:46:50.943Z,7.53
2018-10-03T22:49:19.036Z,8.40
2018-10-03T22:51:47.136Z,8.23
2018-10-03T22:54:15.270Z,8.53
2018-10-03T22:56:43.455Z,5.90
2018-10-03T22:59:11.671Z,7.73
2018-10-03T23:01:40.032Z,8.60
2018-10-03T23:04:08.137Z,8.60
2018-10-03T23:06:36.251Z,7.00
2018-10-03T23:09:04.996Z,6.67
2018-10-03T23:11:33.277Z,7.03
2018-10-03T23:14:01.504Z,9.20
2018-10-03T23:16:29.592Z,11.33
2018-10-03T23:18:57.976Z,11.00
2018-10-03T23:21:26.072Z,8.23
2018-10-03T23:23:54.149Z,6.23
2018-10-03T23:26:22.239Z,5.20
2018-10-03T23:28:50.366Z,8.63
2018-10-03T23:31:18.452Z,7.87
2018-10-03T23:33:46.647Z,7.77
2018-10-03T23:36:14.880Z,7.60
2018-10-03T23:38:42.968Z,8.83
2018-10-03T23:41:11.171Z,6.65
2018-10-03T23:43:39.257Z,7.70
2018-10-03T23:46:07.919Z,8.17
2018-10-03T23:48:36.020Z,7.40
2018-10-03T23:51:04.345Z,7.57
2018-10-03T23:53:32.437Z,8.60
2018-10-03T23:56:00.678Z,11.07
2018-10-03T23:58:28.954Z,7.33
